createdAt,value
2023-04-16T00:01:35.390Z,0
2023-04-16T00:05:10.211Z,1
2023-04-16T00:11:35.345Z,10
2023-04-16T00:21:35.327Z,0
2023-04-16T00:29:46.071Z,1
2023-04-16T00:31:35.266Z,1
2023-04-16T00:41:35.735Z,0
2023-04-16T00:51:35.263Z,0
2023-04-16T00:54:41.160Z,1
2023-04-16T01:01:35.335Z,4
2023-04-16T01:11:35.279Z,0
2023-04-16T01:14:07.574Z,1
2023-04-16T01:21:35.246Z,8
2023-04-16T01:21:39.022Z,1
2023-04-16T01:31:35.319Z,4
2023-04-16T01:41:35.277Z,0
2023-04-16T01:47:37.539Z,1
2023-04-16T01:51:35.193Z,3
2023-04-16T02:01:35.256Z,0
2023-04-16T02:02:29.602Z,1
2023-04-16T02:11:35.227Z,3
2023-04-16T02:19:41.652Z,1
2023-04-16T02:21:35.174Z,3
2023-04-16T02:22:00.087Z,1
2023-04-16T02:31:35.304Z,8
2023-04-16T02:34:03.015Z,1
2023-04-16T02:41:35.219Z,4
2023-04-16T02:47:59.749Z,1
2023-04-16T02:51:35.156Z,4
2023-04-16T02:53:07.576Z,1
2023-04-16T03:01:35.226Z,1
2023-04-16T03:11:35.198Z,0
2023-04-16T03:21:35.131Z,0
2023-04-16T03:30:18.955Z,1
2023-04-16T03:31:35.188Z,1
2023-04-16T03:31:54.220Z,1
2023-04-16T03:41:35.165Z,6
2023-04-16T03:43:32.398Z,1
2023-04-16T03:51:35.105Z,9
2023-04-16T04:01:35.170Z,0
2023-04-16T04:02:18.365Z,1
2023-04-16T04:11:35.566Z,100
2023-04-16T04:21:35.088Z,139
2023-04-16T04:31:35.144Z,37
2023-04-16T04:32:34.119Z,1
2023-04-16T04:41:35.105Z,11
2023-04-16T04:45:08.166Z,1
2023-04-16T04:51:35.067Z,11
2023-04-16T04:53:04.700Z,1
2023-04-16T05:01:35.208Z,2
2023-04-16T05:06:00.911Z,1
2023-04-16T05:11:35.095Z,2
2023-04-16T05:13:26.588Z,1
2023-04-16T05:21:34.994Z,9
2023-04-16T05:31:35.456Z,0
2023-04-16T05:31:47.713Z,1
2023-04-16T05:41:35.078Z,2
2023-04-16T05:44:42.838Z,1
2023-04-16T05:51:35.026Z,4
2023-04-16T06:01:35.032Z,0
2023-04-16T06:08:25.675Z,1
2023-04-16T06:11:36.411Z,1
2023-04-16T06:11:46.728Z,1
2023-04-16T06:21:34.949Z,1
2023-04-16T06:31:35.478Z,0
2023-04-16T06:41:34.977Z,0
2023-04-16T06:51:34.945Z,0
2023-04-16T07:01:35.120Z,0
2023-04-16T07:11:34.982Z,0
2023-04-16T07:21:34.924Z,0
2023-04-16T07:31:34.964Z,0
2023-04-16T07:41:34.906Z,0
2023-04-16T07:51:34.870Z,0
2023-04-16T07:58:11.730Z,1
2023-04-16T08:01:34.854Z,10
2023-04-16T08:02:32.557Z,1
2023-04-16T08:11:34.906Z,23
2023-04-16T08:12:30.357Z,1
2023-04-16T08:21:34.859Z,210
2023-04-16T08:23:58.333Z,1
2023-04-16T08:31:34.879Z,119
2023-04-16T08:31:38.680Z,1
2023-04-16T08:41:34.839Z,28
2023-04-16T08:51:34.814Z,0
2023-04-16T09:00:48.168Z,1
2023-04-16T09:01:34.856Z,13
2023-04-16T09:02:09.745Z,1
2023-04-16T09:11:34.810Z,157
2023-04-16T09:11:35.963Z,1
2023-04-16T09:21:34.787Z,2
2023-04-16T09:21:38.446Z,1
2023-04-16T09:31:34.792Z,209
2023-04-16T09:41:34.774Z,99
2023-04-16T09:51:34.731Z,83
2023-04-16T10:01:34.809Z,126
2023-04-16T10:11:34.772Z,138
2023-04-16T10:21:34.708Z,99
2023-04-16T10:31:34.740Z,144
2023-04-16T10:41:34.703Z,32
2023-04-16T10:51:35.059Z,80
2023-04-16T11:01:36.620Z,126
2023-04-16T11:11:34.654Z,128
2023-04-16T11:21:34.659Z,134
2023-04-16T11:31:34.675Z,146
2023-04-16T11:41:34.660Z,104
2023-04-16T11:51:34.586Z,97
2023-04-16T12:01:34.619Z,147
2023-04-16T12:11:34.601Z,35
2023-04-16T12:21:34.532Z,111
2023-04-16T12:31:34.570Z,74
2023-04-16T12:41:34.567Z,155
2023-04-16T12:51:34.920Z,168
2023-04-16T13:01:34.628Z,97
2023-04-16T13:11:34.526Z,125
2023-04-16T13:21:34.496Z,120
2023-04-16T13:31:34.536Z,74
2023-04-16T13:41:34.502Z,168
2023-04-16T13:51:34.414Z,120
2023-04-16T14:01:34.861Z,167
2023-04-16T14:11:34.450Z,169
2023-04-16T14:21:34.398Z,97
2023-04-16T14:31:34.504Z,68
2023-04-16T14:41:34.402Z,178
2023-04-16T14:51:34.338Z,149
2023-04-16T15:01:34.831Z,113
2023-04-16T15:11:34.383Z,152
2023-04-16T15:21:34.324Z,181
2023-04-16T15:31:34.414Z,158
2023-04-16T15:41:34.361Z,167
2023-04-16T15:51:34.303Z,126
2023-04-16T16:01:34.343Z,113
2023-04-16T16:11:34.318Z,174
2023-04-16T16:21:34.275Z,114
2023-04-16T16:31:34.350Z,180
2023-04-16T16:41:34.259Z,174
2023-04-16T16:51:34.219Z,180
2023-04-16T17:01:34.329Z,183
2023-04-16T17:11:34.270Z,176
2023-04-16T17:21:34.569Z,180
2023-04-16T17:31:34.672Z,134
2023-04-16T17:41:34.628Z,159
2023-04-16T17:51:34.564Z,186
2023-04-16T18:01:35.126Z,176
2023-04-16T18:11:34.937Z,146
2023-04-16T18:21:34.959Z,190
2023-04-16T18:31:34.970Z,178
2023-04-16T18:41:34.958Z,163
2023-04-16T18:51:34.887Z,180
2023-04-16T19:01:34.905Z,161
2023-04-16T19:11:35.314Z,181
2023-04-16T19:21:34.862Z,153
2023-04-16T19:31:34.949Z,144
2023-04-16T19:41:35.305Z,129
2023-04-16T19:51:34.862Z,107
2023-04-16T20:01:34.893Z,92
2023-04-16T20:11:34.841Z,114
2023-04-16T20:21:35.242Z,106
2023-04-16T20:31:34.825Z,146
2023-04-16T20:41:34.835Z,122
2023-04-16T20:51:35.256Z,45
2023-04-16T21:01:34.808Z,138
2023-04-16T21:11:34.784Z,107
2023-04-16T21:21:34.712Z,171
2023-04-16T21:31:34.807Z,129
2023-04-16T21:41:34.768Z,33
2023-04-16T21:51:34.673Z,12
2023-04-16T22:01:34.899Z,63
2023-04-16T22:11:34.731Z,174
2023-04-16T22:21:34.659Z,254
2023-04-16T22:31:34.726Z,85
2023-04-16T22:41:34.682Z,10
2023-04-16T22:51:34.638Z,54
2023-04-16T23:01:34.685Z,23
2023-04-16T23:11:35.054Z,255
2023-04-16T23:21:34.593Z,233
2023-04-16T23:31:34.658Z,36
2023-04-16T23:41:35.047Z,9
2023-04-16T23:51:34.580Z,100
